Time;durP1;ratioP1;P1;durP2;ratioP2;P2;SDS_P1;SDS_P2;PMS_P1;PMS_P2;Temp;Humidity;BMP_temperature;BMP_pressure;BME280_temperature;BME280_humidity;BME280_pressure;Samples;Min_cycle;Max_cycle;Signal;HPM_P1;HPM_P2
2021/09/16 00:01:24;;;;;;;4.18;1.98;;;15.70;99.90;;;;;;4976093;28;20748;-79
2021/09/16 00:03:50;;;;;;;4.95;2.05;;;15.60;99.90;;;;;;4976033;28;20189;-79
2021/09/16 00:06:15;;;;;;;2.47;1.85;;;15.60;99.90;;;;;;4975666;28;20178;-80
2021/09/16 00:08:41;;;;;;;6.07;2.15;;;15.70;99.90;;;;;;4979322;28;20170;-80
2021/09/16 00:11:07;;;;;;;7.05;2.13;;;15.60;99.90;;;;;;4979584;28;20244;-79
2021/09/16 00:13:33;;;;;;;5.85;2.40;;;15.60;99.90;;;;;;4982277;28;20169;-79
2021/09/16 00:15:59;;;;;;;5.20;2.17;;;15.70;99.90;;;;;;4987775;28;20174;-78
2021/09/16 00:18:24;;;;;;;3.63;1.95;;;15.80;99.90;;;;;;4988113;28;20166;-78
2021/09/16 00:20:50;;;;;;;7.03;2.40;;;15.80;99.90;;;;;;4989300;28;20206;-79
2021/09/16 00:23:16;;;;;;;6.80;2.38;;;15.70;99.90;;;;;;4989387;28;20169;-79
2021/09/16 00:25:42;;;;;;;7.82;3.25;;;15.50;99.90;;;;;;4985233;28;20192;-79
2021/09/16 00:28:08;;;;;;;9.43;2.88;;;15.40;99.90;;;;;;4976249;28;20173;-88
2021/09/16 00:30:34;;;;;;;12.82;3.35;;;15.40;99.90;;;;;;4975596;28;20244;-79
2021/09/16 00:32:59;;;;;;;4.82;3.10;;;15.30;99.90;;;;;;4974832;28;20629;-79
2021/09/16 00:35:25;;;;;;;9.20;3.05;;;15.30;99.90;;;;;;4975858;28;20173;-78
2021/09/16 00:37:51;;;;;;;7.03;2.80;;;15.30;99.90;;;;;;4975758;28;20166;-79
2021/09/16 00:40:17;;;;;;;8.82;3.08;;;15.30;99.90;;;;;;4976074;28;20265;-78
2021/09/16 00:42:43;;;;;;;4.10;2.60;;;15.30;99.90;;;;;;4975887;28;20185;-79
2021/09/16 00:45:10;;;;;;;5.85;3.40;;;15.40;99.90;;;;;;4974146;28;20205;-79
2021/09/16 00:47:38;;;;;;;10.55;2.80;;;15.40;99.90;;;;;;4974385;28;20205;-79
2021/09/16 00:50:05;;;;;;;3.42;2.80;;;15.60;99.90;;;;;;4974984;28;20217;-80
2021/09/16 00:52:33;;;;;;;4.70;2.90;;;15.70;99.90;;;;;;4974690;28;20210;-80
2021/09/16 00:55:01;;;;;;;3.95;3.45;;;15.70;99.90;;;;;;4975482;28;20229;-81
2021/09/16 00:57:28;;;;;;;6.95;2.92;;;15.60;99.90;;;;;;4974077;28;20227;-80
2021/09/16 00:59:56;;;;;;;4.78;2.75;;;15.50;99.90;;;;;;4974114;28;20177;-80
2021/09/16 01:02:22;;;;;;;3.97;2.55;;;15.40;99.90;;;;;;4975239;28;20514;-87
2021/09/16 01:04:47;;;;;;;6.40;3.72;;;15.50;99.90;;;;;;4975372;28;20174;-83
2021/09/16 01:07:14;;;;;;;8.35;3.22;;;15.30;99.90;;;;;;4975036;28;20170;-83
2021/09/16 01:09:42;;;;;;;5.60;3.63;;;15.10;99.90;;;;;;4973326;28;20190;-82
2021/09/16 01:12:08;;;;;;;5.85;2.85;;;15.20;99.90;;;;;;4975338;28;20169;-82
2021/09/16 01:14:34;;;;;;;7.15;3.03;;;15.10;99.90;;;;;;4974948;28;20200;-83
2021/09/16 01:17:00;;;;;;;9.90;3.15;;;15.30;99.90;;;;;;4974962;28;20169;-82
2021/09/16 01:19:27;;;;;;;4.47;3.08;;;15.30;99.90;;;;;;4974736;28;20178;-80
2021/09/16 01:21:52;;;;;;;7.60;3.08;;;15.40;99.90;;;;;;4973355;28;20589;-80
2021/09/16 01:24:19;;;;;;;9.52;4.22;;;15.20;99.90;;;;;;4975117;28;20167;-80
2021/09/16 01:26:46;;;;;;;10.93;3.67;;;15.20;99.90;;;;;;4974578;28;20204;-91
2021/09/16 01:29:12;;;;;;;5.75;3.53;;;15.20;99.90;;;;;;4974702;28;20174;-80
2021/09/16 01:31:41;;;;;;;4.60;3.45;;;15.20;99.90;;;;;;4974290;28;20202;-79
2021/09/16 01:34:09;;;;;;;10.55;4.15;;;15.00;99.90;;;;;;4972973;28;20649;-81
2021/09/16 01:36:35;;;;;;;5.25;3.85;;;15.00;99.90;;;;;;4974915;28;20181;-79
2021/09/16 01:39:06;;;;;;;7.18;4.07;;;15.20;99.90;;;;;;4976586;28;20190;-79
2021/09/16 01:41:31;;;;;;;5.82;3.50;;;15.30;99.90;;;;;;4986399;28;20824;-79
2021/09/16 01:43:57;;;;;;;4.60;3.30;;;15.40;99.90;;;;;;4992423;28;20169;-79
2021/09/16 01:46:24;;;;;;;8.07;3.15;;;15.20;99.90;;;;;;4996189;28;20181;-80
2021/09/16 01:48:50;;;;;;;6.20;3.17;;;15.20;99.90;;;;;;4980363;28;20182;-80
2021/09/16 01:51:16;;;;;;;6.68;3.42;;;15.10;99.90;;;;;;4974655;28;20681;-80
2021/09/16 01:53:42;;;;;;;10.43;3.75;;;15.20;99.90;;;;;;4975477;28;20169;-78
2021/09/16 01:56:09;;;;;;;7.85;3.83;;;15.10;99.90;;;;;;4973590;28;20182;-77
2021/09/16 01:58:36;;;;;;;7.13;3.35;;;15.20;99.90;;;;;;4973687;28;20166;-78
2021/09/16 02:01:03;;;;;;;7.63;3.60;;;15.10;99.90;;;;;;4974703;28;20252;-79
2021/09/16 02:03:28;;;;;;;3.22;2.70;;;15.10;99.90;;;;;;4972607;28;20170;-79
2021/09/16 02:05:54;;;;;;;4.70;3.40;;;15.00;99.90;;;;;;4974776;28;20681;-81
2021/09/16 02:08:20;;;;;;;8.98;3.05;;;15.30;99.90;;;;;;4974320;28;20356;-79
2021/09/16 02:10:45;;;;;;;5.43;2.92;;;15.40;99.90;;;;;;4974446;28;20689;-81
2021/09/16 02:13:11;;;;;;;4.55;3.50;;;15.40;99.90;;;;;;4974943;28;20181;-80
2021/09/16 02:15:36;;;;;;;4.35;3.15;;;15.30;99.90;;;;;;4972831;28;20174;-79
2021/09/16 02:18:02;;;;;;;8.32;2.83;;;15.60;99.90;;;;;;4974565;28;20162;-81
2021/09/16 02:20:28;;;;;;;5.25;3.15;;;15.50;99.90;;;;;;4976070;28;20189;-78
2021/09/16 02:22:54;;;;;;;9.25;3.13;;;15.60;99.90;;;;;;4974485;28;20170;-78
2021/09/16 02:25:19;;;;;;;3.38;2.55;;;15.70;99.90;;;;;;4979081;28;20681;-79
2021/09/16 02:27:45;;;;;;;4.43;2.70;;;15.70;99.90;;;;;;4977221;28;20181;-90
2021/09/16 02:30:12;;;;;;;8.00;2.83;;;15.70;99.90;;;;;;4978810;28;20217;-80
2021/09/16 02:32:37;;;;;;;7.97;2.75;;;15.90;99.90;;;;;;4974311;28;20166;-92
2021/09/16 02:35:04;;;;;;;6.05;2.47;;;16.00;99.90;;;;;;4973997;28;20541;-78
2021/09/16 02:37:30;;;;;;;8.95;3.05;;;16.00;99.90;;;;;;4974202;28;20166;-79
2021/09/16 02:39:56;;;;;;;4.40;2.25;;;15.80;99.90;;;;;;4972758;28;20622;-79
2021/09/16 02:42:21;;;;;;;5.05;2.20;;;15.70;99.90;;;;;;4973373;28;20166;-78
2021/09/16 02:44:47;;;;;;;7.53;2.35;;;15.60;99.90;;;;;;4973065;28;20630;-81
2021/09/16 02:47:13;;;;;;;4.03;2.90;;;15.80;99.90;;;;;;4974041;28;20237;-78
2021/09/16 02:49:38;;;;;;;14.05;2.28;;;16.10;99.90;;;;;;4977457;28;20178;-80
2021/09/16 02:52:04;;;;;;;4.18;2.55;;;16.20;99.90;;;;;;4976350;28;20173;-78
2021/09/16 02:54:30;;;;;;;6.72;2.88;;;16.00;99.90;;;;;;4975985;28;20173;-81
2021/09/16 02:56:56;;;;;;;4.80;2.40;;;15.90;99.90;;;;;;4976554;28;20224;-80
2021/09/16 02:59:21;;;;;;;4.68;2.30;;;15.80;99.90;;;;;;4976910;28;20217;-79
2021/09/16 03:01:47;;;;;;;4.97;2.33;;;15.70;99.90;;;;;;4973217;28;20204;-91
2021/09/16 03:04:13;;;;;;;5.80;2.10;;;15.50;99.90;;;;;;4975058;28;20255;-78
2021/09/16 03:06:38;;;;;;;7.10;2.30;;;15.50;99.90;;;;;;4976284;28;20170;-82
2021/09/16 03:09:04;;;;;;;5.45;2.35;;;15.50;99.90;;;;;;4977834;28;20170;-91
2021/09/16 03:11:30;;;;;;;4.57;2.22;;;15.60;99.90;;;;;;4974855;28;20745;-79
2021/09/16 03:13:55;;;;;;;14.40;3.15;;;15.50;99.90;;;;;;4977449;28;20170;-80
2021/09/16 03:16:21;;;;;;;5.53;1.90;;;15.50;99.90;;;;;;4980105;28;20244;-80
2021/09/16 03:18:47;;;;;;;7.75;3.22;;;15.40;99.90;;;;;;4978710;28;20197;-82
2021/09/16 03:21:13;;;;;;;7.78;2.25;;;15.40;99.90;;;;;;4980111;28;20213;-79
2021/09/16 03:23:38;;;;;;;6.13;2.47;;;15.30;99.90;;;;;;4979939;28;20582;-79
2021/09/16 03:26:04;;;;;;;12.60;2.80;;;15.40;99.90;;;;;;4981433;28;20234;-80
2021/09/16 03:28:30;;;;;;;7.53;3.13;;;15.50;99.90;;;;;;4977660;28;20169;-79
2021/09/16 03:30:56;;;;;;;7.32;3.35;;;15.50;99.90;;;;;;4976708;28;20225;-79
2021/09/16 03:33:21;;;;;;;6.65;2.15;;;15.50;99.90;;;;;;4979727;28;20170;-80
2021/09/16 03:35:47;;;;;;;9.95;2.40;;;15.60;99.90;;;;;;4982185;28;20188;-79
2021/09/16 03:38:12;;;;;;;3.00;2.17;;;15.80;99.90;;;;;;4980748;28;20197;-80
2021/09/16 03:40:38;;;;;;;2.20;2.00;;;15.70;99.90;;;;;;4979599;28;20193;-80
2021/09/16 03:43:05;;;;;;;5.80;2.47;;;15.50;99.90;;;;;;4982292;28;20189;-79
2021/09/16 03:45:31;;;;;;;5.40;2.00;;;15.40;99.90;;;;;;4989242;28;20178;-81
2021/09/16 03:47:56;;;;;;;2.90;2.10;;;15.30;99.90;;;;;;4989429;28;20162;-78
2021/09/16 03:50:22;;;;;;;5.00;2.55;;;15.20;99.90;;;;;;4993273;28;20216;-79
2021/09/16 03:52:47;;;;;;;5.65;2.20;;;15.10;99.90;;;;;;4995680;28;20178;-80
2021/09/16 03:55:13;;;;;;;3.00;2.17;;;15.00;99.90;;;;;;4994726;28;20182;-78
2021/09/16 03:57:39;;;;;;;9.63;3.65;;;15.00;99.90;;;;;;4980514;28;20162;-90
2021/09/16 04:00:06;;;;;;;11.57;3.28;;;15.10;99.90;;;;;;4979896;28;20194;-79
2021/09/16 04:02:33;;;;;;;10.18;3.33;;;15.30;99.90;;;;;;4980285;28;20166;-80
2021/09/16 04:04:58;;;;;;;7.18;3.60;;;15.40;99.90;;;;;;4977656;28;20198;-81
2021/09/16 04:07:24;;;;;;;8.70;4.05;;;15.30;99.90;;;;;;4978352;28;20198;-78
2021/09/16 04:09:49;;;;;;;7.82;3.53;;;15.30;99.90;;;;;;4976293;28;20201;-78
2021/09/16 04:12:15;;;;;;;13.25;3.90;;;15.10;99.90;;;;;;4977157;28;20646;-78
2021/09/16 04:14:41;;;;;;;9.82;3.13;;;15.20;99.90;;;;;;4976648;28;20166;-83
2021/09/16 04:17:06;;;;;;;4.97;3.42;;;15.10;99.90;;;;;;4977358;28;20530;-79
2021/09/16 04:19:32;;;;;;;6.20;3.00;;;15.30;99.90;;;;;;4976745;28;20672;-78
2021/09/16 04:21:58;;;;;;;4.45;3.35;;;15.20;99.90;;;;;;4977903;28;20692;-80
2021/09/16 04:24:24;;;;;;;4.95;2.85;;;15.30;99.90;;;;;;4986289;28;20257;-79
2021/09/16 04:26:49;;;;;;;5.32;3.55;;;15.30;99.90;;;;;;4987596;28;20173;-80
2021/09/16 04:29:17;;;;;;;7.93;2.95;;;15.30;99.90;;;;;;4991502;28;20210;-81
2021/09/16 04:31:43;;;;;;;7.03;3.13;;;15.30;99.90;;;;;;4985132;28;20229;-81
2021/09/16 04:34:10;;;;;;;3.53;2.45;;;15.40;99.90;;;;;;4985322;28;20162;-81
2021/09/16 04:36:36;;;;;;;3.35;2.53;;;15.40;99.90;;;;;;4983787;28;20193;-80
2021/09/16 04:39:04;;;;;;;4.47;2.95;;;15.30;99.90;;;;;;4974804;28;20170;-81
2021/09/16 04:41:30;;;;;;;6.63;3.47;;;15.40;99.90;;;;;;4974381;28;20557;-81
2021/09/16 04:43:56;;;;;;;5.32;2.92;;;15.30;99.90;;;;;;4974337;28;20680;-81
2021/09/16 04:46:22;;;;;;;10.38;3.47;;;15.40;99.90;;;;;;4978396;28;20198;-82
2021/09/16 04:48:48;;;;;;;8.43;4.28;;;15.50;99.90;;;;;;4979218;28;20621;-81
2021/09/16 04:51:13;;;;;;;3.33;2.53;;;15.40;99.90;;;;;;4978820;28;20217;-81
2021/09/16 04:53:39;;;;;;;7.53;3.22;;;15.50;99.90;;;;;;4979174;28;20634;-82
2021/09/16 04:56:05;;;;;;;6.70;2.55;;;15.60;99.90;;;;;;4981266;28;20209;-81
2021/09/16 04:58:31;;;;;;;8.95;3.13;;;15.60;99.90;;;;;;4977216;28;20545;-81
2021/09/16 05:00:56;;;;;;;8.32;3.33;;;15.50;99.90;;;;;;4978954;28;20197;-87
2021/09/16 05:03:22;;;;;;;8.63;3.60;;;15.50;99.90;;;;;;4977479;28;20644;-80
2021/09/16 05:05:47;;;;;;;8.50;2.92;;;15.60;99.90;;;;;;4976642;28;20166;-82
2021/09/16 05:08:15;;;;;;;4.20;3.42;;;15.80;99.90;;;;;;4976735;28;20173;-83
2021/09/16 05:10:41;;;;;;;6.38;2.65;;;15.70;99.90;;;;;;4976099;28;20217;-84
2021/09/16 05:13:07;;;;;;;5.18;3.83;;;15.80;99.90;;;;;;4975897;28;20213;-84
2021/09/16 05:15:32;;;;;;;6.95;3.47;;;15.90;99.90;;;;;;4976398;28;20169;-83
2021/09/16 05:17:58;;;;;;;8.35;3.78;;;16.00;99.90;;;;;;4976173;28;20224;-83
2021/09/16 05:20:24;;;;;;;5.55;3.03;;;16.20;99.90;;;;;;4976373;28;20192;-83
2021/09/16 05:22:49;;;;;;;4.97;3.13;;;16.00;99.90;;;;;;4973017;28;20166;-83
2021/09/16 05:25:15;;;;;;;3.55;3.25;;;16.10;99.90;;;;;;4974885;28;20248;-83
2021/09/16 05:27:40;;;;;;;8.73;3.25;;;16.10;99.90;;;;;;4973443;28;20212;-83
2021/09/16 05:30:07;;;;;;;7.70;3.30;;;16.00;99.90;;;;;;4973386;28;20292;-86
2021/09/16 05:32:33;;;;;;;9.32;3.80;;;16.00;99.90;;;;;;4973610;28;20613;-82
2021/09/16 05:34:59;;;;;;;6.00;3.30;;;16.10;99.90;;;;;;4974295;28;20652;-81
2021/09/16 05:37:24;;;;;;;7.43;3.70;;;16.10;99.90;;;;;;4971857;28;20209;-81
2021/09/16 05:39:50;;;;;;;10.00;3.30;;;16.10;99.90;;;;;;4971208;28;20177;-81
2021/09/16 05:42:16;;;;;;;5.60;3.53;;;16.20;99.90;;;;;;4972954;28;20201;-83
2021/09/16 05:44:41;;;;;;;8.18;3.17;;;16.20;99.90;;;;;;4974439;28;20178;-90
2021/09/16 05:47:07;;;;;;;15.32;4.68;;;16.20;99.90;;;;;;4972817;28;20219;-83
2021/09/16 05:49:33;;;;;;;4.00;3.60;;;16.00;99.90;;;;;;4973427;28;20260;-82
2021/09/16 05:51:59;;;;;;;5.93;2.90;;;16.20;99.90;;;;;;4973187;28;20732;-82
2021/09/16 05:54:24;;;;;;;7.43;3.67;;;16.10;99.90;;;;;;4972904;28;20182;-82
2021/09/16 05:56:50;;;;;;;6.13;3.42;;;16.20;99.90;;;;;;4972978;28;20170;-81
2021/09/16 05:59:16;;;;;;;10.38;4.15;;;16.30;99.90;;;;;;4974271;28;20210;-81
2021/09/16 06:01:42;;;;;;;8.20;3.83;;;15.90;99.90;;;;;;4974095;28;20196;-81
2021/09/16 06:04:07;;;;;;;15.38;4.40;;;15.90;99.90;;;;;;4972704;28;20190;-90
2021/09/16 06:06:33;;;;;;;4.32;3.92;;;16.00;99.90;;;;;;4973588;28;20271;-83
2021/09/16 06:08:59;;;;;;;5.53;4.13;;;16.10;99.90;;;;;;4974391;28;20176;-83
2021/09/16 06:11:25;;;;;;;7.45;4.45;;;16.00;99.90;;;;;;4972736;28;20237;-80
2021/09/16 06:13:54;;;;;;;6.32;4.05;;;16.10;99.90;;;;;;4978942;28;20170;-84
2021/09/16 06:16:20;;;;;;;8.65;4.70;;;16.20;99.90;;;;;;4974244;28;20193;-86
2021/09/16 06:18:46;;;;;;;11.20;4.75;;;16.40;99.90;;;;;;4978242;28;20185;-85
2021/09/16 06:21:12;;;;;;;8.32;5.80;;;16.60;99.90;;;;;;4992364;28;20208;-86
2021/09/16 06:23:37;;;;;;;6.93;5.30;;;16.40;99.90;;;;;;4992373;28;20169;-85
2021/09/16 06:26:03;;;;;;;13.55;5.97;;;16.60;99.90;;;;;;4992387;28;20170;-86
2021/09/16 06:28:28;;;;;;;6.97;5.82;;;16.60;99.90;;;;;;4994208;28;20903;-86
2021/09/16 06:30:54;;;;;;;11.25;4.80;;;16.70;99.90;;;;;;4991571;28;20209;-87
2021/09/16 06:33:20;;;;;;;18.27;5.30;;;16.60;99.90;;;;;;4992104;28;20598;-84
2021/09/16 06:35:45;;;;;;;18.15;5.70;;;16.70;99.90;;;;;;4991735;28;20173;-85
2021/09/16 06:38:11;;;;;;;14.02;5.18;;;16.60;99.90;;;;;;4991353;28;20189;-85
2021/09/16 06:40:37;;;;;;;6.93;5.05;;;16.70;99.90;;;;;;4992167;28;20243;-84
2021/09/16 06:43:03;;;;;;;12.10;7.13;;;16.60;99.90;;;;;;4992090;28;20269;-84
2021/09/16 06:45:28;;;;;;;13.00;5.93;;;16.70;99.90;;;;;;4991266;28;20173;-84
2021/09/16 06:47:55;;;;;;;10.77;5.90;;;16.70;99.90;;;;;;4991943;28;20672;-83
2021/09/16 06:50:21;;;;;;;11.48;5.57;;;16.70;99.90;;;;;;4994360;28;20234;-84
2021/09/16 06:52:47;;;;;;;9.25;5.80;;;16.80;99.90;;;;;;4996344;28;20663;-84
2021/09/16 06:55:12;;;;;;;9.50;5.82;;;16.80;99.90;;;;;;4996294;28;20162;-84
2021/09/16 06:57:38;;;;;;;15.60;5.63;;;17.10;99.90;;;;;;4995991;28;20183;-84
2021/09/16 07:00:05;;;;;;;10.80;5.25;;;17.20;99.90;;;;;;4995846;28;20220;-84
2021/09/16 07:02:31;;;;;;;13.13;6.63;;;17.00;99.90;;;;;;4994552;28;20192;-84
2021/09/16 07:04:57;;;;;;;7.00;5.10;;;17.30;99.90;;;;;;4996048;28;20173;-85
2021/09/16 07:07:22;;;;;;;8.80;6.72;;;17.30;99.90;;;;;;4998394;28;20667;-81
2021/09/16 07:09:48;;;;;;;11.32;7.78;;;17.30;99.90;;;;;;5009242;28;20176;-83
2021/09/16 07:12:14;;;;;;;12.85;7.72;;;17.50;99.90;;;;;;5010339;28;20200;-82
2021/09/16 07:14:40;;;;;;;11.15;6.95;;;17.40;99.90;;;;;;5008265;28;20621;-83
2021/09/16 07:17:06;;;;;;;9.93;8.57;;;17.30;99.90;;;;;;4996640;28;20656;-85
2021/09/16 07:19:32;;;;;;;14.55;10.00;;;17.30;99.90;;;;;;4995693;28;20258;-84
2021/09/16 07:21:58;;;;;;;19.85;10.25;;;17.40;99.90;;;;;;4995862;28;20193;-83
2021/09/16 07:24:24;;;;;;;14.07;9.93;;;17.40;99.90;;;;;;4996910;28;20169;-84
2021/09/16 07:26:50;;;;;;;14.82;10.77;;;17.40;99.90;;;;;;4996737;28;20177;-83
2021/09/16 07:29:17;;;;;;;18.50;10.93;;;17.50;99.90;;;;;;4996662;28;20249;-83
2021/09/16 07:31:43;;;;;;;16.52;11.57;;;17.60;99.90;;;;;;4996079;28;20205;-83
2021/09/16 07:34:09;;;;;;;17.50;10.98;;;17.70;99.90;;;;;;4996119;28;20180;-83
2021/09/16 07:36:34;;;;;;;17.15;10.98;;;17.70;99.90;;;;;;4997066;28;20631;-84
2021/09/16 07:39:00;;;;;;;18.75;11.07;;;17.70;99.90;;;;;;4997029;28;20177;-85
2021/09/16 07:41:26;;;;;;;15.93;11.10;;;17.90;99.90;;;;;;4995145;28;20197;-83
2021/09/16 07:43:51;;;;;;;19.88;11.15;;;18.10;99.90;;;;;;4995317;28;20188;-84
2021/09/16 07:46:17;;;;;;;16.08;11.85;;;18.30;99.90;;;;;;4997648;28;20177;-83
2021/09/16 07:48:42;;;;;;;13.10;9.90;;;18.20;99.90;;;;;;4995435;28;20169;-85
2021/09/16 07:51:09;;;;;;;15.57;10.65;;;17.90;99.90;;;;;;4996094;28;20280;-84
2021/09/16 07:53:35;;;;;;;15.40;10.75;;;17.80;99.90;;;;;;4995647;28;20172;-84
2021/09/16 07:56:00;;;;;;;22.50;11.98;;;17.90;99.90;;;;;;4996602;28;20181;-84
2021/09/16 07:58:26;;;;;;;19.77;11.90;;;17.90;99.90;;;;;;4995882;28;20625;-84
2021/09/16 08:00:52;;;;;;;19.73;11.80;;;18.10;99.90;;;;;;4993963;28;20208;-84
2021/09/16 08:03:18;;;;;;;16.90;10.85;;;18.20;99.90;;;;;;4995529;28;20273;-84
2021/09/16 08:05:45;;;;;;;19.25;11.50;;;18.30;99.90;;;;;;4994790;28;20592;-85
2021/09/16 08:08:10;;;;;;;14.63;10.13;;;18.50;99.90;;;;;;4994635;28;20664;-85
2021/09/16 08:10:36;;;;;;;20.13;11.30;;;18.70;99.90;;;;;;4994681;28;20217;-84
2021/09/16 08:13:02;;;;;;;18.77;10.73;;;18.70;99.90;;;;;;4994069;28;20256;-84
2021/09/16 08:15:28;;;;;;;15.55;10.13;;;18.90;99.90;;;;;;4994231;28;20173;-85
2021/09/16 08:17:54;;;;;;;16.25;11.30;;;18.60;99.90;;;;;;4994849;28;20169;-85
2021/09/16 08:20:19;;;;;;;17.90;11.20;;;18.70;99.90;;;;;;4995843;28;20249;-84
2021/09/16 08:22:45;;;;;;;23.05;11.43;;;18.90;99.90;;;;;;4994421;28;20636;-84
2021/09/16 08:25:14;;;;;;;19.35;11.10;;;19.00;99.90;;;;;;4994330;28;20181;-83
2021/09/16 08:27:39;;;;;;;17.50;9.65;;;19.00;99.90;;;;;;4994172;28;20356;-84
2021/09/16 08:30:07;;;;;;;13.75;10.00;;;18.90;99.90;;;;;;4995151;28;20400;-85
2021/09/16 08:32:33;;;;;;;18.30;9.52;;;19.10;99.90;;;;;;4993754;28;20676;-85
2021/09/16 08:34:59;;;;;;;16.25;9.63;;;19.10;99.90;;;;;;4994768;28;20174;-84
2021/09/16 08:37:24;;;;;;;22.00;11.23;;;19.00;99.90;;;;;;4993859;28;20641;-85
2021/09/16 08:39:50;;;;;;;12.98;10.68;;;19.10;99.90;;;;;;4993544;28;20177;-84
2021/09/16 08:42:17;;;;;;;14.82;10.52;;;19.30;99.90;;;;;;4993678;28;20707;-84
2021/09/16 08:44:44;;;;;;;14.05;9.57;;;19.30;99.90;;;;;;4994500;28;20638;-84
2021/09/16 08:47:14;;;;;;;15.30;8.35;;;19.20;99.90;;;;;;4994732;28;20177;-85
2021/09/16 08:49:40;;;;;;;12.85;9.45;;;19.40;99.90;;;;;;4994187;28;20622;-84
2021/09/16 08:52:07;;;;;;;20.02;9.43;;;19.30;99.90;;;;;;4993632;28;20664;-84
2021/09/16 08:54:33;;;;;;;10.60;9.02;;;19.40;99.90;;;;;;4993856;28;20177;-85
2021/09/16 08:57:01;;;;;;;15.27;8.13;;;19.50;99.90;;;;;;4994744;28;20502;-85
2021/09/16 08:59:29;;;;;;;11.40;8.73;;;19.50;99.90;;;;;;4993387;28;20169;-84
2021/09/16 09:01:55;;;;;;;8.70;7.45;;;19.60;99.90;;;;;;4994750;28;20201;-84
2021/09/16 09:04:21;;;;;;;11.77;7.97;;;19.90;99.90;;;;;;4993565;28;20549;-85
2021/09/16 09:06:46;;;;;;;9.43;7.05;;;20.10;99.90;;;;;;4993210;28;20226;-84
2021/09/16 09:09:14;;;;;;;8.10;6.80;;;20.00;99.90;;;;;;4993435;28;20679;-84
2021/09/16 09:11:48;;;;;;;7.07;6.03;;;20.30;99.90;;;;;;4993367;28;20719;-85
2021/09/16 09:14:26;;;;;;;8.95;6.75;;;20.40;99.90;;;;;;4992934;28;20168;-85
2021/09/16 09:16:52;;;;;;;12.60;6.30;;;20.30;99.90;;;;;;4993275;28;20234;-84
2021/09/16 09:19:19;;;;;;;6.82;6.13;;;20.40;99.90;;;;;;4993378;28;20509;-84
2021/09/16 09:21:45;;;;;;;7.95;5.38;;;20.30;99.90;;;;;;4993186;28;20208;-84
2021/09/16 09:24:12;;;;;;;9.20;5.38;;;20.40;99.90;;;;;;4993617;28;20165;-84
2021/09/16 09:26:39;;;;;;;10.98;5.18;;;20.70;99.90;;;;;;4993464;28;20524;-84
2021/09/16 09:29:08;;;;;;;5.13;3.70;;;20.90;99.90;;;;;;4993408;28;20161;-85
2021/09/16 09:31:36;;;;;;;5.22;3.60;;;20.90;99.90;;;;;;4993110;28;20758;-84
2021/09/16 09:34:21;;;;;;;4.07;3.55;;;20.70;99.90;;;;;;4999792;28;20239;-83
2021/09/16 09:36:47;;;;;;;3.75;3.35;;;20.70;99.90;;;;;;4989766;28;20306;-83
2021/09/16 09:39:13;;;;;;;5.90;3.33;;;20.70;99.90;;;;;;4994994;28;20173;-84
2021/09/16 09:41:38;;;;;;;5.75;2.95;;;20.70;99.90;;;;;;4992973;28;20242;-84
2021/09/16 09:44:07;;;;;;;5.80;3.80;;;20.60;99.90;;;;;;4992617;28;20185;-83
2021/09/16 09:46:42;;;;;;;4.35;2.97;;;20.70;99.90;;;;;;4998243;28;20590;-85
2021/09/16 09:49:11;;;;;;;3.63;2.90;;;20.50;99.90;;;;;;4993300;28;20176;-85
2021/09/16 09:51:43;;;;;;;7.63;4.07;;;20.70;99.90;;;;;;4992750;28;20263;-84
2021/09/16 09:54:27;;;;;;;3.33;3.00;;;20.80;99.90;;;;;;5010328;28;20176;-83
2021/09/16 09:57:08;;;;;;;4.90;2.40;;;20.80;99.90;;;;;;5011352;28;20188;-83
2021/09/16 09:59:57;;;;;;;3.85;2.28;;;20.70;99.90;;;;;;5006976;28;20227;-85
2021/09/16 10:02:32;;;;;;;2.50;2.22;;;20.80;99.90;;;;;;4993093;28;20231;-85
2021/09/16 10:04:58;;;;;;;5.28;2.58;;;20.80;99.90;;;;;;4992650;28;20176;-84
2021/09/16 10:07:36;;;;;;;3.33;2.67;;;21.00;99.90;;;;;;4992667;28;20241;-84
2021/09/16 10:10:05;;;;;;;3.63;2.53;;;20.90;99.90;;;;;;4992108;28;20207;-85
2021/09/16 10:12:31;;;;;;;7.68;2.75;;;20.70;99.90;;;;;;5002010;28;20645;-84
2021/09/16 10:14:57;;;;;;;4.13;2.47;;;20.70;99.90;;;;;;4994031;28;20169;-85
2021/09/16 10:17:23;;;;;;;4.50;2.97;;;20.50;99.90;;;;;;4992991;28;20648;-84
2021/09/16 10:19:49;;;;;;;3.22;2.35;;;20.50;99.90;;;;;;4995676;28;20193;-82
2021/09/16 10:22:16;;;;;;;2.72;2.30;;;20.70;99.90;;;;;;4995087;28;20181;-85
2021/09/16 10:24:43;;;;;;;2.78;1.90;;;20.80;99.90;;;;;;4995617;28;20632;-84
2021/09/16 10:27:27;;;;;;;1.92;1.65;;;20.90;99.90;;;;;;4997995;28;20289;-84
2021/09/16 10:29:52;;;;;;;4.50;2.30;;;20.90;99.90;;;;;;4996981;28;20625;-88
2021/09/16 10:32:18;;;;;;;3.35;1.75;;;21.00;99.90;;;;;;4996435;28;20173;-87
2021/09/16 10:34:48;;;;;;;4.55;1.90;;;20.80;99.90;;;;;;4996297;28;20601;-85
2021/09/16 10:37:19;;;;;;;2.35;1.90;;;21.00;99.90;;;;;;4996717;28;20617;-84
2021/09/16 10:39:46;;;;;;;5.43;1.80;;;20.90;99.90;;;;;;4995662;28;20162;-84
2021/09/16 10:42:12;;;;;;;2.40;1.75;;;21.00;99.90;;;;;;4996329;28;20162;-87
2021/09/16 10:44:38;;;;;;;3.33;2.00;;;21.00;99.90;;;;;;4996712;28;20246;-85
2021/09/16 10:47:33;;;;;;;3.45;2.08;;;21.00;99.90;;;;;;4996353;28;20215;-89
2021/09/16 10:50:19;;;;;;;3.97;3.58;;;21.10;99.90;;;;;;4982573;28;20181;-90
2021/09/16 10:52:44;;;;;;;5.43;3.92;;;21.20;99.90;;;;;;4998393;28;20173;-90
2021/09/16 10:55:10;;;;;;;3.95;2.85;;;21.10;99.90;;;;;;5000869;28;20191;-88
2021/09/16 10:57:39;;;;;;;2.92;2.35;;;21.10;99.90;;;;;;5000249;28;20653;-91
2021/09/16 11:00:16;;;;;;;2.72;2.53;;;21.00;99.90;;;;;;4999928;28;20194;-89
2021/09/16 11:02:43;;;;;;;2.92;2.30;;;21.10;99.90;;;;;;4982055;28;20195;-89
2021/09/16 11:05:18;;;;;;;3.75;3.22;;;21.30;99.90;;;;;;4998458;28;20174;-89
2021/09/16 11:07:50;;;;;;;3.20;2.28;;;21.40;99.90;;;;;;4982486;28;20248;-87
2021/09/16 11:10:16;;;;;;;3.13;2.20;;;21.50;99.90;;;;;;4992230;28;20643;-87
2021/09/16 11:13:02;;;;;;;3.90;2.22;;;21.50;99.90;;;;;;4977462;28;20269;-88
2021/09/16 11:15:30;;;;;;;3.50;2.65;;;21.60;99.90;;;;;;4980045;28;20169;-88
2021/09/16 11:18:09;;;;;;;2.97;2.67;;;21.70;99.90;;;;;;4980267;28;20244;-89
2021/09/16 11:20:37;;;;;;;9.73;2.70;;;21.80;99.90;;;;;;4978959;28;20208;-87
2021/09/16 11:23:04;;;;;;;3.63;3.00;;;21.90;99.90;;;;;;4978039;28;20166;-87
2021/09/16 11:25:41;;;;;;;9.45;2.95;;;21.70;99.90;;;;;;4977721;28;20290;-89
2021/09/16 11:28:08;;;;;;;4.40;2.75;;;21.70;99.90;;;;;;4979740;28;20585;-89
2021/09/16 11:30:39;;;;;;;4.05;3.65;;;21.60;99.90;;;;;;4979218;28;20365;-89
2021/09/16 11:33:17;;;;;;;5.47;3.83;;;21.70;99.90;;;;;;4980600;28;20170;-89
2021/09/16 11:35:43;;;;;;;8.40;3.88;;;21.90;99.90;;;;;;4979079;28;20170;-88
2021/09/16 11:38:10;;;;;;;4.28;3.17;;;22.10;99.90;;;;;;4980039;28;20630;-89
2021/09/16 11:40:38;;;;;;;4.43;4.03;;;22.20;99.90;;;;;;4979034;28;20186;-87
2021/09/16 11:43:12;;;;;;;4.25;3.38;;;22.30;99.90;;;;;;4978100;28;20181;-89
2021/09/16 11:45:43;;;;;;;5.45;3.53;;;22.00;99.90;;;;;;4992665;28;20273;-89
2021/09/16 11:48:13;;;;;;;5.50;5.00;;;22.00;99.90;;;;;;4996098;28;20200;-88
2021/09/16 11:50:53;;;;;;;4.82;4.38;;;22.00;99.90;;;;;;4991205;28;20290;-86
2021/09/16 11:53:22;;;;;;;4.80;3.83;;;22.20;99.90;;;;;;4975738;28;20173;-89
2021/09/16 11:55:53;;;;;;;6.75;4.95;;;22.60;99.90;;;;;;4974824;28;20174;-87
2021/09/16 11:58:19;;;;;;;6.50;4.32;;;22.70;99.90;;;;;;4975495;28;20173;-85
2021/09/16 12:00:59;;;;;;;11.93;5.03;;;22.70;99.90;;;;;;4975062;28;20190;-85
2021/09/16 12:03:28;;;;;;;8.50;4.28;;;22.80;99.90;;;;;;4975180;28;20232;-85
2021/09/16 12:05:59;;;;;;;5.97;3.88;;;23.00;99.90;;;;;;4974531;28;20170;-86
2021/09/16 12:08:27;;;;;;;4.38;4.00;;;23.00;99.90;;;;;;4974485;28;20166;-87
2021/09/16 12:11:02;;;;;;;5.38;4.88;;;23.00;99.90;;;;;;4973520;28;20210;-87
2021/09/16 12:13:40;;;;;;;4.88;4.45;;;23.20;99.90;;;;;;4973394;28;20648;-88
2021/09/16 12:16:33;;;;;;;6.78;6.18;;;22.90;99.90;;;;;;4973876;28;20203;-88
2021/09/16 12:19:02;;;;;;;6.35;5.85;;;22.90;99.90;;;;;;4973312;28;20212;-87
2021/09/16 12:21:36;;;;;;;12.20;5.97;;;22.70;99.90;;;;;;4975724;28;20205;-87
2021/09/16 12:24:14;;;;;;;8.25;4.78;;;22.60;99.90;;;;;;4974421;28;20691;-87
2021/09/16 12:26:47;;;;;;;5.28;4.88;;;22.50;99.90;;;;;;4975799;28;20256;-87
2021/09/16 12:29:20;;;;;;;4.97;4.63;;;22.20;99.90;;;;;;4977614;28;20267;-86
2021/09/16 12:31:59;;;;;;;6.72;3.88;;;22.10;99.90;;;;;;4976326;28;20289;-88
2021/09/16 12:34:30;;;;;;;3.65;3.35;;;22.00;99.90;;;;;;4983941;28;20173;-87
2021/09/16 12:37:01;;;;;;;5.97;3.53;;;22.10;99.90;;;;;;4994666;28;20238;-84
2021/09/16 12:39:29;;;;;;;4.43;4.03;;;22.00;99.90;;;;;;5011417;28;20162;-86
2021/09/16 12:41:56;;;;;;;5.15;4.65;;;21.90;99.90;;;;;;4996710;28;20197;-87
2021/09/16 12:44:24;;;;;;;6.15;5.15;;;21.90;99.90;;;;;;4937156;28;1131231;-88